Williston, North Dakota
Current Conditions -  °F | °C
As of 8:16 AM on Friday 19 Dec 2014 (Local Time) from KISN Reporting Station
Moderate Fog Moderate Fog  
Wind Chill: 21°   Ceiling: 100
Heat Index: 21°   Visibility: 0.25mi
Dew Point: 19°   Wind: 3mph
Humidity: 92%   Direction: 230°SW
Pressure: 29.93"   Gusts: NA
Location:  48.15°N, 103.62°W
Report Text: KISN 191416Z AUTO 23003KT 1/4SM FZFG VV001 M06/M07 A2993 RMK AO2 I1001 T10611072
Loading
Personal Weather Stations






























Interactive Weather Map New forecast layout! Learn more

10-Day Weather Forecast

Advertisements
Track Severe Weather on mobile